Aeroporto :
LOGIN :

Iscrizione | Disclaimer

   EN    FR    IT 

 










Sommario :    VFR   VFR Marginale   IFR   IFR Intensivo   IFR Molto Intensivo
Visibilità : 
Base nubi : 
>= 8 km
>= 3000ft
5 / 8 km
1000 / 3000 ft
1500m / 5 km
500 / 1000 ft
800 / 1500m
200 / 500 ft
< 800m
< 200 ft
Simboli :   Temporali  Nebbia  Neve Forte  Precipitazioni Forti  Vento > 20 kt
SIGMETs :   Varie  Temporali  Ghiacco  Turbolenza  Onda orograficha  Ceneri Vulcaniche






- Altitudine del aeroporto : 425 ft
- Codice IATA : DTM


EDLW - Dortmund

ULTIMO METAR :
  • 181120Z VRB02KT CAVOK 29/18 Q1013

METARs OBSOLETI :
  • 181050Z 01004KT 290V060 9999 29/18 Q1013
  • 181020Z 35004KT 270V070 CAVOK 30/18 Q1013
  • 180950Z 02004KT 290V080 CAVOK 29/19 Q1013
  • 180920Z 32005KT 270V020 CAVOK 28/20 Q1013
  • 180850Z 28004KT 230V350 CAVOK 28/19 Q1013

TAF TAF EDLW
Valido dal 18 a 12 ore il 19 a 12 ore UTC


181100Z 1812/1912 34004KT CAVOK
BECMG 1812/1814 24005KT
PROB30
TEMPO 1814/1820 20020G45KT 2500 +TSRAGR SCT040CB
BECMG 1818/1820 18005KT
BECMG 1907/1910 24010KT



MetMap, La meteo Aeronautica in un colpo d'occhio ! - Copyright ORBIFLY Dicembre 2007 - Disclaimer

ORBIFLY MET'MAP TEAM :

Programmazione e sviluppo : Alexandra Zaïnal
Concezione : Baudouin d'Aumeries
Aiuto per la programmazione : Marc-Olivier Méhu
Supporto tecnico e logistico : Manuel Goepfert
Aiuto per la traduzione : Arnaldo La Scala

Contatto : metmap@orbifly.com




FONTI E CREDITI :

   NOAA